Time;durP1;ratioP1;P1;durP2;ratioP2;P2;SDS_P1;SDS_P2;PMS_P1;PMS_P2;Temp;Humidity;BMP_temperature;BMP_pressure;BME280_temperature;BME280_humidity;BME280_pressure;Samples;Min_cycle;Max_cycle;Signal;HPM_P1;HPM_P2
2022/12/03 00:00:33;;;;;;;22.37;14.13;;;;;;;3.66;96.04;98801.09;4959875;28;102783;-72
2022/12/03 00:03:01;;;;;;;19.33;14.20;;;;;;;3.96;95.39;98799.75;4960434;28;103244;-73
2022/12/03 00:05:33;;;;;;;20.90;15.37;;;;;;;3.90;94.53;98800.03;4976204;28;104139;-72
2022/12/03 00:08:03;;;;;;;18.87;13.90;;;;;;;3.83;94.44;98797.75;4960688;28;102639;-72
2022/12/03 00:10:31;;;;;;;20.47;14.13;;;;;;;3.94;94.48;98795.53;4968959;28;102710;-72
2022/12/03 00:12:59;;;;;;;19.90;13.83;;;;;;;3.88;94.46;98801.88;4977895;28;103528;-72
2022/12/03 00:15:27;;;;;;;17.70;12.97;;;;;;;3.86;94.42;98805.47;4948617;28;103316;-73
2022/12/03 00:17:55;;;;;;;18.53;13.37;;;;;;;3.69;94.28;98805.34;4990905;28;102746;-72
2022/12/03 00:20:24;;;;;;;20.53;13.43;;;;;;;3.78;94.73;98805.81;4964432;28;104385;-72
2022/12/03 00:22:53;;;;;;;18.57;13.50;;;;;;;3.81;94.33;98810.91;4959344;28;103211;-73
2022/12/03 00:25:23;;;;;;;20.13;14.00;;;;;;;3.92;94.77;98806.06;4950395;28;103313;-72
2022/12/03 00:27:51;;;;;;;22.60;14.50;;;;;;;3.86;93.75;98803.72;4953239;28;102660;-72
2022/12/03 00:30:19;;;;;;;19.23;13.67;;;;;;;4.01;93.69;98812.66;4964438;28;102781;-73
2022/12/03 00:32:47;;;;;;;15.70;10.60;;;;;;;4.15;93.82;98809.41;4974445;28;104423;-73
2022/12/03 00:35:15;;;;;;;15.63;9.87;;;;;;;4.42;93.34;98810.78;4959648;28;103254;-72
2022/12/03 00:37:43;;;;;;;16.23;10.70;;;;;;;4.53;92.99;98795.44;4959321;28;102825;-73
2022/12/03 00:40:13;;;;;;;16.30;11.67;;;;;;;4.58;92.08;98804.78;4959611;28;103570;-72
2022/12/03 00:42:41;;;;;;;18.90;13.80;;;;;;;4.51;91.62;98812.97;4960702;28;103724;-72
2022/12/03 00:45:09;;;;;;;15.63;10.83;;;;;;;4.51;92.54;98812.97;4960162;28;103307;-72
2022/12/03 00:47:37;;;;;;;13.07;9.37;;;;;;;4.50;92.51;98811.28;4961413;28;102489;-72
2022/12/03 00:50:07;;;;;;;19.50;12.43;;;;;;;4.48;91.69;98805.28;4964903;28;103760;-72
2022/12/03 00:52:35;;;;;;;18.13;12.63;;;;;;;4.34;91.82;98810.28;4965688;28;103889;-72
2022/12/03 00:55:03;;;;;;;20.40;13.60;;;;;;;4.00;92.26;98814.41;4961421;28;103187;-73
2022/12/03 00:57:32;;;;;;;19.97;14.03;;;;;;;3.85;93.29;98812.47;4961249;28;102679;-73
2022/12/03 01:00:00;;;;;;;18.97;13.63;;;;;;;3.72;95.02;98816.53;4963426;28;103054;-72
2022/12/03 01:02:30;;;;;;;17.43;12.77;;;;;;;3.75;95.81;98810.31;4965092;28;102905;-72
2022/12/03 01:04:58;;;;;;;18.90;13.57;;;;;;;3.91;96.11;98814.81;4965028;28;102689;-72
2022/12/03 01:07:26;;;;;;;17.83;13.20;;;;;;;3.87;96.08;98815.88;4965632;28;102806;-72
2022/12/03 01:09:56;;;;;;;21.53;14.13;;;;;;;3.89;96.71;98819.25;4965831;28;102596;-73
2022/12/03 01:12:24;;;;;;;19.93;13.23;;;;;;;3.89;97.32;98818.41;4964609;28;103364;-72
2022/12/03 01:14:53;;;;;;;20.17;13.20;;;;;;;3.82;97.54;98815.19;4969954;28;103179;-72
2022/12/03 01:17:21;;;;;;;20.07;14.00;;;;;;;3.65;99.29;98820.31;4967616;28;102741;-72
2022/12/03 01:19:51;;;;;;;20.07;14.00;;;;;;;3.83;100.00;98819.53;4971760;28;104310;-72
2022/12/03 01:22:19;;;;;;;17.53;13.00;;;;;;;3.94;98.88;98819.06;4954156;28;103335;-73
2022/12/03 01:24:46;;;;;;;17.03;12.10;;;;;;;4.02;99.49;98820.41;4977578;28;102564;-72
2022/12/03 01:27:14;;;;;;;17.97;12.53;;;;;;;3.98;99.45;98818.88;4959741;28;102547;-72
2022/12/03 01:29:42;;;;;;;19.07;13.27;;;;;;;3.84;99.89;98821.22;4961322;28;102955;-73
2022/12/03 01:32:18;;;;;;;19.83;13.43;;;;;;;3.87;100.00;98821.09;4956231;28;103848;-73
2022/12/03 01:34:46;;;;;;;17.70;13.40;;;;;;;3.84;100.00;98818.63;4962331;28;103280;-73
2022/12/03 01:37:14;;;;;;;17.97;11.87;;;;;;;4.08;100.00;98821.91;4978384;28;102664;-73
2022/12/03 01:39:43;;;;;;;16.70;12.00;;;;;;;3.85;100.00;98817.69;4978551;28;102656;-73
2022/12/03 01:42:15;;;;;;;15.33;10.83;;;;;;;3.80;100.00;98824.88;4965626;28;103663;-73
2022/12/03 01:44:44;;;;;;;19.43;12.20;;;;;;;3.94;99.90;98829.50;4962629;28;103195;-73
2022/12/03 01:47:18;;;;;;;16.10;12.60;;;;;;;3.83;100.00;98816.06;4963605;28;102644;-73
2022/12/03 01:49:50;;;;;;;15.97;11.43;;;;;;;3.67;100.00;98808.03;4960948;28;102610;-73
2022/12/03 01:52:21;;;;;;;16.17;11.67;;;;;;;3.82;100.00;98816.97;4966718;28;103446;-73
2022/12/03 01:54:52;;;;;;;14.50;11.40;;;;;;;4.06;99.90;98822.00;4959873;28;104017;-73
2022/12/03 01:57:23;;;;;;;16.70;11.77;;;;;;;3.99;99.04;98820.53;4972206;28;102617;-73
2022/12/03 01:59:52;;;;;;;14.93;11.60;;;;;;;4.06;99.17;98816.75;4962327;28;102698;-73
2022/12/03 02:02:24;;;;;;;16.83;12.00;;;;;;;4.00;99.38;98824.00;4960434;28;103318;-73
2022/12/03 02:04:52;;;;;;;17.30;11.63;;;;;;;4.14;99.00;98823.41;4980325;28;104213;-72
2022/12/03 02:07:24;;;;;;;16.63;11.37;;;;;;;4.19;98.30;98824.03;4978775;28;102672;-73
2022/12/03 02:09:54;;;;;;;15.90;11.13;;;;;;;4.22;98.20;98829.13;4967981;28;102933;-73
2022/12/03 02:12:30;;;;;;;13.70;11.27;;;;;;;3.99;98.38;98815.31;4960450;28;102973;-73
2022/12/03 02:14:59;;;;;;;14.13;11.20;;;;;;;4.02;97.99;98828.25;4977979;28;103046;-73
2022/12/03 02:17:28;;;;;;;14.20;9.90;;;;;;;4.24;97.69;98824.72;4978185;28;103922;-73
2022/12/03 02:19:58;;;;;;;11.70;9.80;;;;;;;4.09;97.68;98824.47;4966560;28;102707;-73
2022/12/03 02:22:38;;;;;;;13.37;9.83;;;;;;;4.07;97.65;98817.59;4976038;28;104581;-73
2022/12/03 02:25:11;;;;;;;14.90;10.73;;;;;;;4.16;97.90;98821.56;4961824;28;103978;-73
2022/12/03 02:27:40;;;;;;;14.33;10.00;;;;;;;3.93;97.92;98820.81;4963787;28;102621;-73
2022/12/03 02:30:09;;;;;;;14.00;10.50;;;;;;;4.14;96.84;98818.19;4966772;28;104024;-73
2022/12/03 02:32:38;;;;;;;12.63;9.90;;;;;;;4.03;97.78;98818.66;4977582;28;104093;-73
2022/12/03 02:35:06;;;;;;;11.83;10.30;;;;;;;4.07;97.84;98804.50;4964443;28;103137;-73
2022/12/03 02:37:37;;;;;;;13.33;10.07;;;;;;;4.29;96.79;98807.88;4962361;28;102716;-73
2022/12/03 02:40:12;;;;;;;13.50;9.80;;;;;;;4.49;96.60;98805.19;4957275;28;104022;-73
2022/12/03 02:42:42;;;;;;;12.37;9.90;;;;;;;4.37;95.91;98810.16;4986190;28;103789;-73
2022/12/03 02:45:13;;;;;;;9.37;7.27;;;;;;;4.52;95.99;98812.06;4976097;28;103237;-73
2022/12/03 02:47:45;;;;;;;9.97;7.33;;;;;;;4.65;95.66;98819.28;4947587;28;103234;-73
2022/12/03 02:50:16;;;;;;;12.97;9.17;;;;;;;4.76;95.04;98813.53;4971083;28;102715;-72
2022/12/03 02:52:46;;;;;;;12.67;9.90;;;;;;;4.70;94.32;98819.06;4984613;28;103302;-73
2022/12/03 02:55:17;;;;;;;15.27;9.90;;;;;;;4.57;94.10;98823.19;4952197;28;103245;-73
2022/12/03 02:57:48;;;;;;;10.93;8.87;;;;;;;4.68;93.92;98819.16;4951872;28;102792;-73
2022/12/03 03:00:17;;;;;;;11.57;9.10;;;;;;;4.70;93.66;98824.28;4971199;28;104308;-73
2022/12/03 03:02:46;;;;;;;12.13;9.53;;;;;;;4.76;94.09;98826.63;4979944;28;104143;-73
2022/12/03 03:05:15;;;;;;;11.63;8.10;;;;;;;4.75;94.01;98817.06;4986189;28;103464;-73
2022/12/03 03:07:46;;;;;;;9.63;7.47;;;;;;;4.90;94.46;98816.34;4955789;28;102640;-73
2022/12/03 03:10:22;;;;;;;10.57;8.53;;;;;;;4.87;93.67;98816.50;4963191;28;102826;-73
2022/12/03 03:12:54;;;;;;;12.30;8.90;;;;;;;4.94;93.95;98812.66;4963097;28;104138;-73
2022/12/03 03:15:23;;;;;;;12.37;9.90;;;;;;;4.79;92.96;98813.41;4962503;28;103188;-73
2022/12/03 03:17:51;;;;;;;11.80;9.53;;;;;;;4.64;93.19;98819.34;4960425;28;102966;-73
2022/12/03 03:20:19;;;;;;;14.87;10.80;;;;;;;4.68;93.57;98823.53;4963763;28;103927;-73
2022/12/03 03:22:47;;;;;;;12.30;9.37;;;;;;;4.73;94.04;98818.91;4977287;28;104171;-73
2022/12/03 03:25:21;;;;;;;12.63;9.93;;;;;;;4.41;94.26;98825.63;4962404;28;103391;-73
2022/12/03 03:27:49;;;;;;;12.33;9.67;;;;;;;4.52;94.75;98823.38;4973581;28;103062;-73
2022/12/03 03:30:17;;;;;;;15.67;10.30;;;;;;;4.55;94.99;98819.75;4960172;28;104103;-73
2022/12/03 03:32:45;;;;;;;12.40;9.30;;;;;;;4.54;94.37;98820.69;4959459;28;103963;-73
2022/12/03 03:35:16;;;;;;;14.27;9.97;;;;;;;4.52;95.40;98814.69;4962610;28;103233;-73
2022/12/03 03:37:44;;;;;;;15.57;10.90;;;;;;;4.31;95.07;98810.41;4958093;28;102688;-73
2022/12/03 03:40:12;;;;;;;13.30;10.37;;;;;;;4.31;95.87;98813.03;4961472;28;103837;-73
2022/12/03 03:42:42;;;;;;;12.10;9.33;;;;;;;4.42;96.22;98813.41;4954941;28;104069;-73
2022/12/03 03:45:10;;;;;;;12.27;8.90;;;;;;;4.43;95.69;98815.09;4961046;28;103267;-73
2022/12/03 03:47:38;;;;;;;13.83;10.27;;;;;;;4.28;96.81;98823.63;4961689;28;102821;-74
2022/12/03 03:50:09;;;;;;;16.17;11.17;;;;;;;3.80;99.01;98817.03;4970927;28;102670;-73
2022/12/03 03:52:38;;;;;;;15.87;11.23;;;;;;;3.81;100.00;98816.13;4982604;28;103109;-72
2022/12/03 03:55:10;;;;;;;15.77;11.43;;;;;;;3.98;99.74;98818.00;4960097;28;103368;-73
2022/12/03 03:57:43;;;;;;;17.30;11.70;;;;;;;4.01;99.63;98807.44;4962509;28;102650;-73
2022/12/03 04:00:12;;;;;;;15.47;11.00;;;;;;;3.90;100.00;98805.25;4962044;28;102611;-73
2022/12/03 04:02:41;;;;;;;19.07;12.60;;;;;;;3.85;99.89;98812.47;4972297;28;103777;-73
2022/12/03 04:05:15;;;;;;;16.17;11.40;;;;;;;4.16;100.00;98811.09;4957759;28;103216;-73
2022/12/03 04:07:45;;;;;;;16.27;12.03;;;;;;;4.16;99.13;98811.09;4955678;28;102761;-72
2022/12/03 04:13:01;;;;;;;17.83;12.40;;;;;;;4.06;100.00;98793.22;4962490;28;103220;-73
2022/12/03 04:15:29;;;;;;;18.03;12.73;;;;;;;4.18;98.90;98801.44;4961325;28;103263;-73
2022/12/03 04:20:45;;;;;;;19.23;12.00;;;;;;;4.09;99.71;98795.72;4965087;28;103834;-73
2022/12/03 04:23:12;;;;;;;19.67;12.93;;;;;;;4.06;99.30;98795.84;4963062;28;103256;-73
2022/12/03 04:36:41;;;;;;;21.67;13.83;;;;;;;4.00;99.68;98788.28;4964830;28;103214;-73
2022/12/03 04:39:09;;;;;;;23.43;13.53;;;;;;;4.02;99.58;98789.03;4969507;28;102563;-72
2022/12/03 04:41:37;;;;;;;20.40;13.20;;;;;;;4.12;98.52;98801.72;4967097;28;102897;-72
2022/12/03 04:46:52;;;;;;;20.63;13.53;;;;;;;4.36;97.50;98792.75;4981733;28;103697;-72
2022/12/03 04:49:21;;;;;;;23.33;13.87;;;;;;;4.26;97.20;98788.88;4967714;28;102691;-72
2022/12/03 04:51:49;;;;;;;22.30;14.27;;;;;;;4.21;98.66;98790.84;4973524;28;102607;-72
2022/12/03 04:54:17;;;;;;;24.00;14.50;;;;;;;4.06;98.55;98798.47;4961695;28;103941;-72
2022/12/03 04:56:45;;;;;;;21.47;12.83;;;;;;;4.19;99.22;98795.28;4966849;28;103171;-72
2022/12/03 04:59:15;;;;;;;20.40;13.53;;;;;;;4.36;98.51;98793.59;4960267;28;102663;-72
2022/12/03 05:01:43;;;;;;;19.23;13.00;;;;;;;4.41;97.75;98785.53;4973883;28;103960;-72
2022/12/03 05:04:12;;;;;;;18.40;12.87;;;;;;;4.14;98.34;98797.25;4961166;28;104573;-72
2022/12/03 05:06:40;;;;;;;23.27;15.20;;;;;;;3.96;99.48;98796.28;4959535;28;104206;-73
2022/12/03 05:09:08;;;;;;;19.27;13.67;;;;;;;3.82;100.00;98790.81;4970530;28;102822;-73
2022/12/03 05:11:36;;;;;;;23.37;13.97;;;;;;;3.77;100.00;98782.34;4964532;28;102891;-73
2022/12/03 05:14:04;;;;;;;21.80;13.87;;;;;;;3.70;100.00;98784.41;4980470;28;104411;-73
2022/12/03 05:16:33;;;;;;;24.77;14.40;;;;;;;3.48;100.00;98783.63;4980946;28;104238;-73
2022/12/03 05:19:01;;;;;;;23.90;14.47;;;;;;;3.61;100.00;98779.56;4961689;28;102622;-73
2022/12/03 05:21:28;;;;;;;22.00;14.17;;;;;;;3.58;100.00;98790.13;4964559;28;103968;-73
2022/12/03 05:23:56;;;;;;;25.00;14.27;;;;;;;3.85;100.00;98786.31;4962055;28;103307;-73
2022/12/03 05:26:24;;;;;;;23.80;13.93;;;;;;;4.05;100.00;98788.91;4966155;28;103370;-73
2022/12/03 05:28:52;;;;;;;25.10;13.90;;;;;;;4.03;99.73;98788.13;4959699;28;102688;-73
2022/12/03 05:31:19;;;;;;;23.77;15.00;;;;;;;3.96;100.00;98783.22;4965016;28;104034;-73
2022/12/03 05:33:49;;;;;;;22.57;15.20;;;;;;;4.02;99.69;98778.59;4962340;28;103647;-73
2022/12/03 05:36:17;;;;;;;23.90;15.13;;;;;;;4.10;98.95;98766.00;4962876;28;104344;-73
2022/12/03 05:38:44;;;;;;;23.00;14.03;;;;;;;3.97;99.13;98774.47;4978533;28;102565;-73
2022/12/03 05:43:58;;;;;;;20.93;14.33;;;;;;;3.84;99.38;98763.72;4964818;28;103742;-72
2022/12/03 05:46:25;;;;;;;21.83;14.17;;;;;;;3.91;100.00;98759.06;4962879;28;103349;-73
2022/12/03 05:48:56;;;;;;;21.20;14.83;;;;;;;3.97;100.00;98764.03;4973962;28;102752;-79
2022/12/03 05:51:24;;;;;;;22.27;14.63;;;;;;;4.12;99.40;98757.25;4967775;28;104012;-78
2022/12/03 05:53:51;;;;;;;24.10;15.57;;;;;;;3.97;99.28;98764.88;4965115;28;103846;-76
2022/12/03 05:56:19;;;;;;;23.13;14.17;;;;;;;4.38;98.75;98764.78;4954229;28;103359;-85
2022/12/03 05:58:47;;;;;;;24.00;16.03;;;;;;;4.38;97.42;98767.38;4977829;28;102736;-80
2022/12/03 06:01:15;;;;;;;21.53;12.90;;;;;;;4.42;97.67;98764.53;4967556;28;102809;-76
2022/12/03 06:03:43;;;;;;;20.33;13.20;;;;;;;4.46;96.69;98768.69;4956590;28;103314;-74
2022/12/03 06:06:15;;;;;;;20.00;12.83;;;;;;;4.55;96.41;98759.56;4961705;28;103209;-76
2022/12/03 06:08:43;;;;;;;22.80;14.20;;;;;;;4.62;95.90;98768.84;4978141;28;102650;-78
2022/12/03 06:11:10;;;;;;;24.93;16.17;;;;;;;4.75;95.20;98772.56;4976266;28;104068;-80
2022/12/03 06:13:38;;;;;;;25.00;15.13;;;;;;;4.68;94.86;98772.03;4970070;28;103324;-82
2022/12/03 06:16:06;;;;;;;24.03;14.87;;;;;;;4.49;94.97;98770.34;4965947;28;103246;-90
2022/12/03 06:18:34;;;;;;;23.87;14.43;;;;;;;4.63;95.02;98771.38;4968017;28;102535;-87
2022/12/03 06:21:03;;;;;;;22.83;14.63;;;;;;;4.50;94.80;98769.41;4969941;28;104084;-85
2022/12/03 06:23:32;;;;;;;23.10;14.97;;;;;;;4.47;96.04;98769.56;4960649;28;103466;-88
2022/12/03 06:26:00;;;;;;;21.30;13.17;;;;;;;4.64;95.58;98777.47;4980472;28;103301;-87
2022/12/03 06:28:28;;;;;;;21.03;12.50;;;;;;;4.72;94.83;98775.31;4974895;28;102846;-86
2022/12/03 06:30:59;;;;;;;18.40;11.50;;;;;;;4.86;95.13;98782.53;4964124;28;102752;-87
2022/12/03 06:33:27;;;;;;;23.67;14.23;;;;;;;4.93;94.51;98792.66;4964373;28;103078;-86
2022/12/03 06:35:55;;;;;;;24.43;16.13;;;;;;;4.40;93.61;98778.63;4980480;28;103191;-86
2022/12/03 06:38:23;;;;;;;23.93;14.50;;;;;;;4.58;95.96;98782.97;4970317;28;102746;-87
2022/12/03 06:40:52;;;;;;;26.00;15.70;;;;;;;4.45;95.47;98781.88;4951704;28;103042;-88
2022/12/03 06:43:19;;;;;;;24.47;15.23;;;;;;;4.41;96.59;98788.16;4961716;28;104132;-88
2022/12/03 06:45:47;;;;;;;28.03;15.93;;;;;;;4.52;95.86;98783.28;4960781;28;103237;-86
2022/12/03 06:48:17;;;;;;;22.63;13.40;;;;;;;4.68;95.55;98789.50;4960141;28;102568;-87
2022/12/03 06:50:45;;;;;;;22.10;12.53;;;;;;;4.81;94.69;98798.47;4958041;28;102825;-85
2022/12/03 06:53:13;;;;;;;24.70;15.23;;;;;;;4.60;94.51;98802.09;4956553;28;103244;-88
2022/12/03 06:55:41;;;;;;;22.23;13.50;;;;;;;4.80;94.08;98804.59;4973475;28;103491;-87
2022/12/03 06:58:10;;;;;;;18.50;11.77;;;;;;;4.97;94.33;98806.44;4978360;28;102889;-88
2022/12/03 07:00:38;;;;;;;20.73;12.90;;;;;;;5.03;93.77;98806.97;4961088;28;104164;-88
2022/12/03 07:03:06;;;;;;;25.83;15.30;;;;;;;4.84;92.59;98806.16;4952934;28;103851;-88
2022/12/03 07:05:34;;;;;;;28.63;16.93;;;;;;;4.27;95.53;98803.63;4962248;28;103099;-88
2022/12/03 07:08:02;;;;;;;23.50;15.00;;;;;;;4.45;97.02;98797.56;4976823;28;102716;-88
2022/12/03 07:10:30;;;;;;;27.03;16.63;;;;;;;4.61;95.86;98798.53;4960931;28;102708;-87
2022/12/03 07:12:58;;;;;;;26.10;16.27;;;;;;;4.34;96.20;98789.38;4978790;28;103240;-83
2022/12/03 07:15:27;;;;;;;26.27;15.73;;;;;;;4.51;97.00;98786.81;4975116;28;102831;-87
2022/12/03 07:17:55;;;;;;;25.17;14.80;;;;;;;4.41;96.32;98783.75;4957370;28;102714;-83
2022/12/03 07:20:23;;;;;;;25.10;15.53;;;;;;;4.36;97.49;98779.66;4956114;28;102911;-83
2022/12/03 07:22:51;;;;;;;29.07;17.80;;;;;;;4.05;99.10;98775.84;4957108;28;104475;-84
2022/12/03 07:25:18;;;;;;;26.73;16.50;;;;;;;4.22;98.94;98780.31;4955793;28;103417;-83
2022/12/03 07:27:50;;;;;;;30.53;17.00;;;;;;;3.67;100.00;98779.31;4956928;28;102710;-88
2022/12/03 07:30:18;;;;;;;28.87;15.40;;;;;;;4.03;100.00;98782.06;4947758;28;102724;-88
2022/12/03 07:32:48;;;;;;;30.13;17.70;;;;;;;4.39;99.41;98787.38;4971563;28;103206;-83
2022/12/03 07:35:16;;;;;;;30.33;17.27;;;;;;;4.57;98.61;98783.91;4969334;28;104590;-84
2022/12/03 07:37:46;;;;;;;31.90;17.70;;;;;;;4.62;97.22;98781.94;4969054;28;102697;-83
2022/12/03 07:40:16;;;;;;;29.23;17.30;;;;;;;4.78;97.43;98784.66;4979067;28;102826;-84
2022/12/03 07:42:44;;;;;;;24.70;15.23;;;;;;;4.77;97.21;98778.59;4962258;28;103557;-82
2022/12/03 07:45:11;;;;;;;31.47;17.90;;;;;;;4.39;97.31;98776.91;4964412;28;103096;-83
2022/12/03 07:47:39;;;;;;;31.20;18.90;;;;;;;4.07;99.82;98776.59;4959093;28;102744;-84
2022/12/03 07:50:10;;;;;;;29.80;16.87;;;;;;;4.16;100.00;98771.88;4963963;28;103905;-83
2022/12/03 07:52:38;;;;;;;28.00;16.23;;;;;;;4.42;100.00;98776.78;4959750;28;103294;-83
2022/12/03 07:55:07;;;;;;;28.17;16.93;;;;;;;4.33;100.00;98777.19;4960888;28;102751;-82
2022/12/03 07:57:34;;;;;;;30.90;18.00;;;;;;;4.04;100.00;98781.16;4963633;28;102627;-84
2022/12/03 08:00:06;;;;;;;31.67;18.27;;;;;;;4.21;100.00;98772.53;4959870;28;102800;-83
2022/12/03 08:02:36;;;;;;;34.13;17.83;;;;;;;3.97;100.00;98775.34;4958279;28;103270;-83
2022/12/03 08:05:05;;;;;;;35.30;19.67;;;;;;;4.10;100.00;98771.25;4964407;28;103208;-84
2022/12/03 08:07:35;;;;;;;33.23;19.50;;;;;;;3.89;100.00;98773.97;4960454;28;102602;-83
2022/12/03 08:10:04;;;;;;;35.63;19.17;;;;;;;4.11;100.00;98777.31;4976502;28;103865;-84
2022/12/03 08:12:39;;;;;;;32.70;18.63;;;;;;;4.07;100.00;98778.38;4958811;28;103257;-82
2022/12/03 08:15:13;;;;;;;36.43;20.17;;;;;;;3.82;100.00;98778.63;4961444;28;103184;-81
2022/12/03 08:17:42;;;;;;;34.13;19.57;;;;;;;3.79;100.00;98775.31;4960866;28;102614;-83
2022/12/03 08:20:14;;;;;;;36.47;19.63;;;;;;;3.79;100.00;98786.59;4963085;28;103978;-83
2022/12/03 08:22:45;;;;;;;35.23;18.83;;;;;;;3.79;100.00;98786.59;4975256;28;103399;-83
2022/12/03 08:25:17;;;;;;;32.07;17.93;;;;;;;4.04;100.00;98792.44;4957283;28;103258;-83
2022/12/03 08:27:48;;;;;;;38.50;19.97;;;;;;;4.07;100.00;98787.06;4973976;28;102726;-81
2022/12/03 08:30:17;;;;;;;34.70;20.07;;;;;;;4.21;100.00;98783.81;4961456;28;103906;-80
2022/12/03 08:32:47;;;;;;;38.57;20.00;;;;;;;4.30;100.00;98777.31;4961867;28;102795;-81
2022/12/03 08:35:22;;;;;;;33.90;19.50;;;;;;;4.32;100.00;98781.59;4955603;28;103378;-85
2022/12/03 08:37:59;;;;;;;27.63;15.13;;;;;;;4.66;100.00;98786.09;4975547;28;102759;-82
2022/12/03 08:40:34;;;;;;;33.63;20.43;;;;;;;4.87;98.86;98779.84;4957551;28;102868;-82
2022/12/03 08:43:12;;;;;;;31.07;18.13;;;;;;;4.96;97.59;98787.25;4970211;28;103208;-84
2022/12/03 08:45:41;;;;;;;27.47;15.40;;;;;;;4.82;97.94;98786.22;4956634;28;103376;-84
2022/12/03 08:48:27;;;;;;;30.03;16.73;;;;;;;4.41;97.70;98781.16;4944748;28;102882;-82
2022/12/03 08:50:57;;;;;;;29.80;18.23;;;;;;;4.45;99.03;98781.88;4973420;28;102772;-82
2022/12/03 08:53:29;;;;;;;33.17;18.67;;;;;;;4.16;98.74;98785.81;4950225;28;104113;-81
2022/12/03 08:55:59;;;;;;;32.93;17.87;;;;;;;4.40;98.48;98774.25;4944836;28;103218;-75
2022/12/03 08:58:34;;;;;;;30.10;18.40;;;;;;;4.30;98.56;98772.94;4955823;28;103084;-85
2022/12/03 09:01:17;;;;;;;30.13;18.50;;;;;;;4.38;98.65;98775.22;4965205;28;102818;-84
2022/12/03 09:03:50;;;;;;;31.43;18.13;;;;;;;4.63;98.05;98766.16;4936160;28;103488;-77
2022/12/03 09:06:21;;;;;;;27.47;17.80;;;;;;;4.53;96.25;98777.13;4947735;28;103202;-85
2022/12/03 09:08:50;;;;;;;28.30;17.17;;;;;;;4.84;95.00;98782.59;4964903;28;102750;-90
2022/12/03 09:11:21;;;;;;;27.47;17.10;;;;;;;4.68;93.50;98773.78;4966732;28;102760;-78
2022/12/03 09:13:49;;;;;;;26.93;17.00;;;;;;;4.50;94.59;98785.13;4943443;28;103219;-79
2022/12/03 09:16:19;;;;;;;23.93;14.80;;;;;;;4.88;93.67;98789.41;4947496;28;103230;-91
2022/12/03 09:18:47;;;;;;;26.90;16.30;;;;;;;4.86;91.58;98787.75;4967852;28;104357;-86
2022/12/03 09:21:15;;;;;;;24.37;16.53;;;;;;;5.07;91.33;98790.22;4952921;28;102670;-87
2022/12/03 09:23:43;;;;;;;20.87;14.53;;;;;;;5.06;90.39;98788.50;4948852;28;104307;-80
2022/12/03 09:26:12;;;;;;;27.60;16.07;;;;;;;4.71;89.96;98788.50;4945667;28;103345;-79
2022/12/03 09:28:40;;;;;;;23.20;14.60;;;;;;;4.59;90.48;98789.91;4954026;28;102978;-86
2022/12/03 09:31:08;;;;;;;25.90;15.10;;;;;;;4.67;88.89;98786.03;4955213;28;102692;-82
2022/12/03 09:33:36;;;;;;;21.70;14.03;;;;;;;4.81;88.27;98790.59;4955266;28;103305;-86
2022/12/03 09:36:05;;;;;;;27.37;16.10;;;;;;;4.39;89.50;98784.75;4947258;28;102966;-80
2022/12/03 09:38:33;;;;;;;23.93;15.00;;;;;;;4.23;89.75;98786.38;4966273;28;103135;-79
2022/12/03 09:41:01;;;;;;;21.30;13.60;;;;;;;4.57;89.20;98786.53;4960417;28;103807;-75
2022/12/03 09:43:32;;;;;;;21.47;12.37;;;;;;;4.90;88.48;98777.09;4949405;28;104171;-79
2022/12/03 09:46:21;;;;;;;23.00;15.03;;;;;;;4.59;87.99;98766.38;4949225;28;103216;-83
2022/12/03 09:48:49;;;;;;;22.40;14.63;;;;;;;4.72;88.85;98764.88;4942662;28;102718;-78
2022/12/03 09:51:19;;;;;;;25.90;15.20;;;;;;;4.35;88.71;98759.69;4963052;28;104154;-79
2022/12/03 09:53:47;;;;;;;24.00;15.10;;;;;;;4.40;89.06;98758.56;4954507;28;103290;-83
2022/12/03 09:56:20;;;;;;;25.00;15.30;;;;;;;4.68;88.21;98753.72;4970123;28;103499;-79
2022/12/03 09:58:50;;;;;;;25.03;15.10;;;;;;;4.78;86.94;98754.09;4952487;28;102863;-80
2022/12/03 10:01:21;;;;;;;21.47;14.60;;;;;;;4.27;90.10;98756.53;4951709;28;102844;-78
2022/12/03 10:03:51;;;;;;;22.43;15.00;;;;;;;4.63;88.32;98760.91;4964831;28;102725;-80
2022/12/03 10:06:23;;;;;;;22.30;14.47;;;;;;;4.81;85.79;98759.19;4955182;28;103212;-83
2022/12/03 10:08:54;;;;;;;22.73;14.63;;;;;;;4.76;85.44;98758.56;4948013;28;103536;-83
2022/12/03 10:11:26;;;;;;;20.80;14.30;;;;;;;4.88;86.09;98765.84;4950247;28;102839;-81
2022/12/03 10:13:57;;;;;;;23.17;14.47;;;;;;;4.90;86.30;98765.75;4970534;28;103118;-86
2022/12/03 10:16:27;;;;;;;19.10;13.07;;;;;;;4.99;85.14;98771.41;4947896;28;102884;-86
2022/12/03 10:18:59;;;;;;;20.43;13.63;;;;;;;4.99;84.57;98775.78;4954780;28;102791;-87
2022/12/03 10:21:30;;;;;;;17.03;11.80;;;;;;;5.16;86.09;98770.59;4955854;28;102716;-81
2022/12/03 10:24:19;;;;;;;20.13;14.60;;;;;;;5.17;86.23;98764.41;4948493;28;104227;-82
2022/12/03 10:26:48;;;;;;;20.50;13.40;;;;;;;4.96;84.61;98752.38;4955373;28;103278;-77
2022/12/03 10:29:21;;;;;;;22.57;14.87;;;;;;;4.62;86.95;98753.16;4952303;28;102744;-84
2022/12/03 10:31:55;;;;;;;20.73;14.07;;;;;;;4.78;85.79;98759.34;4940325;28;102823;-84
2022/12/03 10:34:25;;;;;;;20.23;13.83;;;;;;;4.52;86.42;98751.91;4970468;28;103242;-80
2022/12/03 10:37:10;;;;;;;19.93;13.43;;;;;;;4.81;85.38;98764.44;4949222;28;102771;-77
2022/12/03 10:39:54;;;;;;;18.77;14.53;;;;;;;4.94;84.72;98755.06;4962004;28;103326;-81
2022/12/03 10:42:24;;;;;;;17.83;13.33;;;;;;;5.20;85.50;98746.78;4942932;28;103075;-78
2022/12/03 10:45:13;;;;;;;17.90;13.37;;;;;;;5.04;84.55;98756.31;4946276;28;103277;-81
2022/12/03 10:47:41;;;;;;;16.37;11.50;;;;;;;4.98;83.45;98750.53;4946981;28;103263;-76
2022/12/03 10:50:17;;;;;;;15.67;11.00;;;;;;;5.02;83.19;98745.06;4953409;28;103139;-77
2022/12/03 10:52:46;;;;;;;17.13;11.90;;;;;;;5.17;82.98;98743.44;4962805;28;102780;-79
2022/12/03 10:55:15;;;;;;;16.77;11.43;;;;;;;5.16;82.88;98731.28;4940340;28;103256;-79
2022/12/03 10:57:45;;;;;;;20.00;13.67;;;;;;;4.68;84.77;98739.78;4961227;28;103407;-84
2022/12/03 11:00:18;;;;;;;17.50;13.33;;;;;;;4.60;84.66;98728.81;4954903;28;103051;-77
2022/12/03 11:02:46;;;;;;;18.53;13.57;;;;;;;4.81;83.40;98721.69;4949743;28;102664;-79
2022/12/03 11:05:27;;;;;;;20.23;13.73;;;;;;;4.52;84.74;98716.09;4956166;28;103560;-82
2022/12/03 11:07:56;;;;;;;19.77;14.20;;;;;;;4.54;84.03;98723.88;4951898;28;103198;-85
2022/12/03 11:10:24;;;;;;;20.57;15.03;;;;;;;4.56;83.94;98716.81;4968782;28;102730;-79
2022/12/03 11:13:42;;;;;;;21.37;14.07;;;;;;;4.82;83.38;98712.94;4942363;28;102788;-80
2022/12/03 11:16:12;;;;;;;18.30;13.67;;;;;;;4.99;83.58;98713.81;4945377;28;103237;-80
2022/12/03 11:19:01;;;;;;;19.07;14.33;;;;;;;4.96;83.11;98711.34;4956244;28;103194;-83
2022/12/03 11:21:30;;;;;;;20.30;14.07;;;;;;;4.83;84.70;98707.59;4955888;28;102613;-83
2022/12/03 11:24:17;;;;;;;21.10;15.37;;;;;;;4.49;84.22;98712.78;4965320;28;102669;-76
2022/12/03 11:27:08;;;;;;;20.07;14.53;;;;;;;4.31;84.76;98705.81;4956115;28;104403;-77
2022/12/03 11:29:54;;;;;;;21.23;14.93;;;;;;;4.04;85.68;98698.31;4948215;28;103221;-79
2022/12/03 11:33:03;;;;;;;21.43;14.70;;;;;;;4.20;86.41;98703.69;4952477;28;102755;-78
2022/12/03 11:35:57;;;;;;;20.03;13.07;;;;;;;4.26;87.03;98699.94;4962263;28;103904;-79
2022/12/03 11:38:56;;;;;;;22.13;15.03;;;;;;;4.36;86.91;98693.34;4950728;28;104406;-78
2022/12/03 11:41:30;;;;;;;20.00;14.70;;;;;;;4.43;86.86;98692.16;4907931;28;103290;-87
2022/12/03 11:44:20;;;;;;;22.57;14.77;;;;;;;4.69;86.11;98699.56;4938125;28;102711;-72
2022/12/03 11:46:49;;;;;;;20.03;13.40;;;;;;;4.76;84.04;98693.13;4936632;28;102775;-73
2022/12/03 11:49:34;;;;;;;20.53;14.43;;;;;;;4.60;84.09;98692.19;4946774;28;104847;-74
2022/12/03 11:52:21;;;;;;;21.00;13.33;;;;;;;4.73;84.10;98702.91;4942341;28;103459;-74
2022/12/03 11:54:52;;;;;;;20.93;14.20;;;;;;;4.80;83.46;98689.44;4946359;28;103097;-72